Bel Air, Maryland - USA


Today's Data File


2/26/24
Time         Wind Dir   Wind Spd  Wind Gust     Hum In   Humidity    Temp In       Temp  Raw Barom Wind Chill  Press Alt Cloud Base   Dens Alt Temp Out R  DailyRain   24HrRain   RainRate
                    �        mph        mph          %          %         �F         �F         in         �F         ft         ft         ft      �F/hr         in         in      in/hr
12:00am           190          1          7         26         83       76.1       34.5      29.50       34.5        394       1155      -1151      -0.18       0.00       0.00      0.000
12:01am           227          5          5         26         83       76.1       34.4      29.50       29.9        395       1155      -1157      -0.27       0.00       0.00      0.000
12:02am           185          2          5         26         83       76.1       34.5      29.50       33.7        394       1155      -1151      -0.17       0.00       0.00      0.000
12:03am           185          3          5         26         83       76.1       34.4      29.50       32.0        394       1155      -1158      -0.27       0.00       0.00      0.000
12:04am           220          4          7         26         83       76.1       34.5      29.50       31.0        395       1155      -1150      -0.16       0.00       0.00      0.000
12:05am           220          2          7         26         83       76.1       34.5      29.50       33.7        395       1155      -1150      -0.16       0.00       0.00      0.000
12:06am           189          7          8         26         83       76.1       34.5      29.50       28.5        395       1155      -1150      -0.16       0.00       0.00      0.000
12:07am           224          5          8         26         83       76.1       34.5      29.50       30.0        395       1155      -1150      -0.15       0.00       0.00      0.000
12:08am           195          3          8         26         83       76.1       34.6      29.50       32.3        394       1156      -1144      -0.05       0.00       0.00      0.000
12:09am           215          2          8         26         83       76.1       34.5      29.50       33.7        395       1155      -1150      -0.15       0.00       0.00      0.000
12:10am           215          2          8         26         83       76.1       34.5      29.50       33.7        395       1155      -1150      -0.15       0.00       0.00      0.000
12:11am           215          2          3         26         83       76.1       34.5      29.50       33.7        395       1155      -1150      -0.14       0.00       0.00      0.000
12:12am           215          3          3         26         83       76.1       34.4      29.49       32.0        395       1155      -1156      -0.24       0.00       0.00      0.000
12:13am           201          5          5         26         83       76.1       34.4      29.49       29.9        395       1155      -1156      -0.24       0.00       0.00      0.000
12:14am           204          6          6         26         83       76.1       34.4      29.49       29.1        395       1155      -1156      -0.23       0.00       0.00      0.000
12:15am           218          2          6         26         83       76.1       34.3      29.49       33.5        395       1154      -1163      -0.33       0.00       0.00      0.000
12:16am           238          4          4         26         83       76.1       34.3      29.49       30.7        395       1154      -1163      -0.32       0.00       0.00      0.000
12:17am           233          2          4         26         83       76.1       34.3      29.49       33.5        395       1154      -1163      -0.32       0.00       0.00      0.000
12:18am           210          3          4         26         83       76.1       34.3      29.49       31.9        395       1154      -1163      -0.31       0.00       0.00      0.000
12:19am           220          3          4         26         83       76.1       34.3      29.49       31.9        396       1154      -1162      -0.31       0.00       0.00      0.000
12:20am           220          1          4         26         83       76.1       34.2      29.49       34.2        396       1154      -1169      -0.40       0.00       0.00      0.000
12:21am           210          2          3         26         83       76.1       34.2      29.49       33.4        396       1154      -1169      -0.39       0.00       0.00      0.000
12:22am           211          2          3         26         83       76.1       34.2      29.49       33.4        396       1154      -1169      -0.39       0.00       0.00      0.000
12:23am           167          2          3         27         83       76.1       34.2      29.49       33.4        396       1154      -1169      -0.38       0.00       0.00      0.000
12:24am           220          2          3         26         83       76.1       34.1      29.49       33.3        396       1153      -1176      -0.47       0.00       0.00      0.000
12:25am           220          2          3         26         83       76.1       34.1      29.49       33.3        396       1153      -1176      -0.47       0.00       0.00      0.000
12:26am           220          2          3         26         83       76.1       34.1      29.49       33.3        396       1153      -1176      -0.46       0.00       0.00      0.000
12:27am           197          2          5         26         83       76.1       34.1      29.49       33.3        396       1153      -1176      -0.45       0.00       0.00      0.000
12:28am           197          3          5         26         83       76.1       34.1      29.49       31.7        396       1153      -1176      -0.44       0.00       0.00      0.000
12:29am           187          3          5         26         83       75.9       34.1      29.49       31.7        396       1153      -1176      -0.44       0.00       0.00      0.000
12:30am           187          3          5         26         83       75.9       34.1      29.49       31.7        396       1153      -1176      -0.43       0.00       0.00      0.000
12:31am           212          1          4         26         83       76.1       34.1      29.49       34.1        396       1153      -1176      -0.42       0.00       0.00      0.000
12:32am           218          3          4         26         82       75.9       34.2      29.49       31.8        396       1228      -1169      -0.32       0.00       0.00      0.000
12:33am           273          1          4         26         82       75.9       34.2      29.49       34.2        396       1228      -1169      -0.31       0.00       0.00      0.000
12:34am           186          5          6         26         82       75.9       34.2      29.49       29.7        396       1228      -1169      -0.31       0.00       0.00      0.000
12:35am           208          3          6         26         82       75.9       34.2      29.49       31.8        397       1228      -1168      -0.30       0.00       0.00      0.000
12:36am           209          3          6         26         82       75.9       34.3      29.49       31.9        396       1228      -1162      -0.20       0.00       0.00      0.000
12:37am           266          3          6         26         82       75.9       34.3      29.49       31.9        396       1228      -1162      -0.19       0.00       0.00      0.000
12:38am           214          2          6         26         82       75.9       34.3      29.49       33.5        396       1228      -1162      -0.19       0.00       0.00      0.000
12:39am           199          3          6         26         82       75.9       34.3      29.49       31.9        396       1228      -1162      -0.19       0.00       0.00      0.000
12:40am           237          2          6         26         82       75.9       34.3      29.49       33.5        396       1228      -1162      -0.18       0.00       0.00      0.000
12:41am           202          3          5         26         81       75.9       34.4      29.49       32.0        396       1304      -1155      -0.08       0.00       0.00      0.000
12:42am           212          2          5         26         81       75.9       34.4      29.49       33.6        396       1304      -1155      -0.08       0.00       0.00      0.000
12:43am           218          1          5         26         81       75.9       34.4      29.49       34.4        396       1304      -1155      -0.08       0.00       0.00      0.000
12:44am           202          3          5         26         81       75.9       34.4      29.49       32.0        396       1304      -1155      -0.08       0.00       0.00      0.000
12:45am           197          2          5         26         81       75.9       34.3      29.49       33.5        396       1303      -1162      -0.17       0.00       0.00      0.000
12:46am           194          2          3         26         81       75.9       34.3      29.49       33.5        396       1303      -1162      -0.17       0.00       0.00      0.000
12:47am           220          2          4         26         81       75.9       34.3      29.49       33.5        396       1303      -1162      -0.17       0.00       0.00      0.000
12:48am           207          5          5         26         81       75.9       34.3      29.49       29.8        397       1303      -1161      -0.17       0.00       0.00      0.000
12:49am           203          2          5         26         81       75.9       34.3      29.49       33.5        396       1303      -1162      -0.16       0.00       0.00      0.000
12:50am           187          6          6         26         81       75.9       34.3      29.49       29.0        397       1303      -1161      -0.16       0.00       0.00      0.000
12:51am           228          3          7         26         81       75.9       34.3      29.49       31.9        397       1303      -1161      -0.16       0.00       0.00      0.000
12:52am           222          4          7         26         80       75.9       34.4      29.49       30.8        397       1380      -1154      -0.06       0.00       0.00      0.000
12:53am           206          4          7         26         80       75.9       34.4      29.49       30.8        398       1380      -1153      -0.06       0.00       0.00      0.000
12:54am           254          5          7         26         80       75.9       34.3      29.49       29.8        397       1379      -1161      -0.15       0.00       0.00      0.000
12:55am           196          2          7         26         80       75.9       34.4      29.49       33.6        397       1380      -1154      -0.05       0.00       0.00      0.000
12:56am           196          2          3         26         80       75.9       34.5      29.49       33.7        397       1380      -1147       0.05       0.00       0.00      0.000
12:57am           189          6          6         26         80       75.9       34.5      29.49       29.2        396       1380      -1148       0.05       0.00       0.00      0.000
12:58am           203          3          6         26         80       75.9       34.5      29.49       32.1        396       1380      -1148       0.05       0.00       0.00      0.000
12:59am           253          3          6         26         80       75.9       34.4      29.49       32.0        396       1380      -1155      -0.05       0.00       0.00      0.000
1:00am            218          4          6         26         80       75.9       34.5      29.49       31.0        396       1380      -1148       0.05       0.00       0.00      0.000
1:01am            197          3          4         26         80       75.9       34.4      29.49       32.0        396       1380      -1155      -0.05       0.00       0.00      0.000
1:02am            186          2          5         26         80       75.9       34.5      29.49       33.7        396       1380      -1148       0.05       0.00       0.00      0.000
1:03am            186          2          5         26         80       75.9       34.4      29.49       33.6        397       1380      -1154      -0.06       0.00       0.00      0.000
1:04am            160          2          5         26         80       75.9       34.4      29.49       33.6        397       1380      -1154      -0.06       0.00       0.00      0.000
1:05am            160          2          5         26         80       75.9       34.4      29.49       33.6        396       1380      -1155      -0.05       0.00       0.00      0.000
1:06am            160          1          2         26         80       75.9       34.4      29.49       34.4        396       1380      -1155      -0.05       0.00       0.00      0.000
1:07am            160          1          2         26         80       75.9       34.4      29.49       34.4        396       1380      -1155      -0.05       0.00       0.00      0.000
1:08am            160          2          2         26         80       75.9       34.3      29.49       33.5        396       1379      -1162      -0.15       0.00       0.00      0.000
1:09am            159          1          2         26         80       75.9       34.3      29.49       34.3        396       1379      -1162      -0.15       0.00       0.00      0.000
1:10am            216          3          3         26         80       75.9       34.3      29.49       31.9        397       1379      -1161      -0.15       0.00       0.00      0.000
1:11am            226          3          3         26         80       75.9       34.3      29.49       31.9        397       1379      -1161      -0.14       0.00       0.00      0.000
1:12am            220          2          3         26         80       75.9       34.2      29.49       33.4        397       1379      -1168      -0.24       0.00       0.00      0.000
1:13am            213          3          5         26         80       75.9       34.3      29.49       31.9        397       1379      -1161      -0.14       0.00       0.00      0.000
1:14am            189          2          5         26         80       75.9       34.3      29.49       33.5        397       1379      -1161      -0.14       0.00       0.00      0.000
1:15am            188          2          5         26         80       75.9       34.3      29.49       33.5        397       1379      -1161      -0.13       0.00       0.00      0.000
1:16am            195          2          4         26         80       75.9       34.2      29.49       33.4        397       1379      -1168      -0.23       0.00       0.00      0.000
1:17am            193          2          4         26         80       75.9       34.3      29.49       33.5        397       1379      -1161      -0.13       0.00       0.00      0.000
1:18am            193          2          4         26         80       75.9       34.3      29.49       33.5        397       1379      -1161      -0.12       0.00       0.00      0.000
1:19am            216          3          5         26         80       75.9       34.2      29.49       31.8        397       1379      -1168      -0.22       0.00       0.00      0.000
1:20am            199          2          5         26         79       75.9       34.2      29.49       33.4        398       1455      -1167      -0.22       0.00       0.00      0.000
1:21am            199          4          6         26         80       75.9       34.2      29.49       30.6        398       1379      -1167      -0.21       0.00       0.00      0.000
1:22am            185          2          6         26         79       75.9       34.2      29.49       33.4        397       1455      -1168      -0.21       0.00       0.00      0.000
1:23am            185          2          6         26         79       75.9       34.2      29.49       33.4        397       1455      -1168      -0.21       0.00       0.00      0.000
1:24am            187          3          6         26         79       75.9       34.2      29.49       31.8        397       1455      -1168      -0.20       0.00       0.00      0.000
1:25am            187          1          6         26         79       75.9       34.2      29.49       34.2        397       1455      -1168      -0.20       0.00       0.00      0.000
1:26am            210          2          3         26         79       75.9       34.1      29.49       33.3        397       1455      -1175      -0.29       0.00       0.00      0.000
1:27am            202          3          3         26         79       75.9       34.1      29.49       31.7        397       1455      -1175      -0.29       0.00       0.00      0.000
1:28am            214          1          5         28         79       75.9       34.1      29.49       34.1        397       1455      -1175      -0.29       0.00       0.00      0.000
1:29am            213          2          5         26         79       75.9       34.1      29.49       33.3        397       1455      -1175      -0.28       0.00       0.00      0.000
1:30am            214          2          5         26         79       75.9       34.1      29.49       33.3        397       1455      -1175      -0.28       0.00       0.00      0.000
1:31am            185          3          3         26         79       75.9       34.1      29.49       31.7        397       1455      -1175      -0.27       0.00       0.00      0.000
1:32am            187          1          3         26         80       75.9       34.1      29.49       34.1        397       1378      -1175      -0.27       0.00       0.00      0.000
1:33am            193          2          3         26         79       75.9       34.0      29.49       33.2        398       1454      -1180      -0.36       0.00       0.00      0.000
1:34am            193          4          4         26         79       75.9       34.0      29.49       30.4        398       1454      -1180      -0.36       0.00       0.00      0.000
1:35am            217          1          4         26         79       75.9       34.0      29.49       34.0        398       1454      -1180      -0.35       0.00       0.00      0.000
1:36am            218          2          3         26         79       75.9       34.0      29.49       33.2        398       1454      -1180      -0.34       0.00       0.00      0.000
1:37am            219          2          3         26         79       75.9       34.0      29.49       33.2        398       1454      -1180      -0.34       0.00       0.00      0.000
1:38am            219          2          3         26         79       75.9       34.0      29.49       33.2        398       1454      -1180      -0.33       0.00       0.00      0.000
1:39am            234          2          3         26         79       75.9       34.0      29.49       33.2        397       1454      -1182      -0.33       0.00       0.00      0.000
1:40am            241          3          4         26         79       75.9       33.9      29.49       31.5        397       1453      -1189      -0.42       0.00       0.00      0.000
1:41am            240          1          3         26         79       75.9       33.9      29.49       33.9        397       1453      -1189      -0.41       0.00       0.00      0.000
1:42am            241          2          3         26         79       75.9       33.9      29.49       33.1        398       1453      -1187      -0.41       0.00       0.00      0.000
1:43am            241          2          3         26         79       75.9       33.9      29.49       33.1        398       1453      -1187      -0.40       0.00       0.00      0.000
1:44am            241          2          3         26         79       75.9       33.9      29.49       33.1        398       1453      -1187      -0.39       0.00       0.00      0.000
1:45am            241          2          3         26         79       75.9       33.8      29.49       32.9        397       1453      -1196      -0.49       0.00       0.00      0.000
1:46am            241          2          3         26         80       75.9       33.8      29.49       32.9        397       1376      -1196      -0.48       0.00       0.00      0.000
1:47am            241          1          3         26         80       75.9       33.8      29.49       33.8        398       1376      -1194      -0.47       0.00       0.00      0.000
1:48am            236          2          3         26         80       75.9       33.7      29.49       32.8        398       1375      -1201      -0.56       0.00       0.00      0.000
1:49am            236          2          3         26         80       75.9       33.7      29.49       32.8        397       1375      -1203      -0.55       0.00       0.00      0.000
1:50am            236          3          3         26         80       75.9       33.6      29.49       31.1        398       1375      -1208      -0.64       0.00       0.00      0.000
1:51am            213          2          3         26         80       75.9       33.7      29.49       32.8        398       1375      -1201      -0.53       0.00       0.00      0.000
1:52am            213          1          3         26         80       75.9       33.6      29.49       33.6        398       1375      -1208      -0.62       0.00       0.00      0.000
1:53am            238          3          3         26         80       75.9       33.6      29.49       31.1        398       1375      -1208      -0.61       0.00       0.00      0.000
1:54am            238          2          3         26         80       75.9       33.6      29.49       32.7        398       1375      -1208      -0.60       0.00       0.00      0.000
1:55am            229          2          3         26         80       75.9       33.6      29.49       32.7        400       1375      -1206      -0.59       0.00       0.00      0.000
1:56am            228          1          2         26         80       75.9       33.6      29.49       33.6        400       1375      -1206      -0.58       0.00       0.00      0.000
1:57am            221          2          3         26         80       75.9       33.6      29.49       32.7        400       1375      -1206      -0.57       0.00       0.00      0.000
1:58am            191          2          6         26         80       75.9       33.5      29.49       32.6        400       1374      -1213      -0.66       0.00       0.00      0.000
1:59am            192          3          6         26         80       75.9       33.5      29.49       31.0        401       1374      -1212      -0.65       0.00       0.00      0.000
2:00am            208          1          6         26         80       75.9       33.5      29.49       33.5        400       1374      -1213      -0.64       0.00       0.00      0.000
2:01am            207          2          3         26         80       75.9       33.6      29.49       32.7        402       1375      -1204      -0.53       0.00       0.00      0.000
2:02am            206          2          3         26         80       75.9       33.6      29.49       32.7        403       1375      -1203      -0.52       0.00       0.00      0.000
2:03am            206          2          3         26         80       75.9       33.6      29.49       32.7        403       1375      -1203      -0.51       0.00       0.00      0.000
2:04am            206          1          3         26         80       75.9       33.5      29.49       33.5        404       1374      -1209      -0.60       0.00       0.00      0.000
2:05am            206          2          3         26         80       75.9       33.5      29.49       32.6        404       1374      -1209      -0.60       0.00       0.00      0.000
2:06am            206          2          3         26         80       75.9       33.5      29.49       32.6        404       1374      -1209      -0.59       0.00       0.00      0.000
2:07am            206          2          3         26         80       75.9       33.5      29.49       32.6        404       1374      -1209      -0.58       0.00       0.00      0.000
2:08am            206          2          3         26         80       75.9       33.5      29.49       32.6        402       1374      -1211      -0.57       0.00       0.00      0.000
2:09am            195          1          3         26         80       75.9       33.5      29.49       33.5        402       1374      -1211      -0.56       0.00       0.00      0.000
2:10am            211          0          4         26         80       75.9       33.5      29.49       33.5        402       1374      -1211      -0.55       0.00       0.00      0.000
2:11am            212          2          2         26         80       75.9       33.6      29.49       32.7        401       1375      -1205      -0.44       0.00       0.00      0.000
2:12am            212          0          2         26         80       75.9       33.6      29.49       33.6        401       1375      -1205      -0.43       0.00       0.00      0.000
2:13am            212          1          2         26         80       76.1       33.5      29.49       33.5        400       1374      -1213      -0.52       0.00       0.00      0.000
2:14am            266          2          3         26         80       76.1       33.5      29.49       32.6        399       1374      -1214      -0.51       0.00       0.00      0.000
2:15am            266          1          3         26         80       76.1       33.6      29.49       33.6        398       1375      -1208      -0.40       0.00       0.00      0.000
2:16am            266          1          2         26         80       76.1       33.6      29.49       33.6        397       1375      -1210      -0.40       0.00       0.00      0.000
2:17am            266          2          2         26         80       76.1       33.5      29.49       32.6        397       1374      -1217      -0.49       0.00       0.00      0.000
2:18am            224          3          3         26         80       76.1       33.6      29.49       31.1        397       1375      -1210      -0.38       0.00       0.00      0.000
2:19am            225          0          3         26         80       76.1       33.6      29.49       33.6        397       1375      -1210      -0.38       0.00       0.00      0.000
2:20am            225          0          3         26         80       76.1       33.5      29.49       33.5        397       1374      -1217      -0.47       0.00       0.00      0.000
2:21am            225          0          0         26         80       76.1       33.5      29.49       33.5        397       1374      -1217      -0.46       0.00       0.00      0.000
2:22am            225          1          1         26         80       76.1       33.5      29.49       33.5        397       1374      -1217      -0.45       0.00       0.00      0.000
2:23am            225          0          2         26         80       76.1       33.5      29.49       33.5        397       1374      -1217      -0.45       0.00       0.00      0.000
2:24am            225          2          2         26         80       76.1       33.5      29.49       32.6        396       1374      -1218      -0.44       0.00       0.00      0.000
2:25am            225          2          2         26         80       76.1       33.5      29.49       32.6        396       1374      -1218      -0.43       0.00       0.00      0.000
2:26am            225          1          2         26         80       76.1       33.5      29.49       33.5        396       1374      -1218      -0.43       0.00       0.00      0.000
2:27am            225          0          2         26         80       75.9       33.4      29.49       33.4        396       1374      -1225      -0.52       0.00       0.00      0.000
2:28am            218          2          2         26         80       75.9       33.4      29.49       32.5        396       1374      -1225      -0.51       0.00       0.00      0.000
2:29am            218          1          2         26         80       75.9       33.4      29.49       33.4        396       1374      -1225      -0.50       0.00       0.00      0.000
2:30am            218          0          2         26         80       75.9       33.4      29.49       33.4        395       1374      -1226      -0.49       0.00       0.00      0.000
2:31am            218          1          1         26         80       75.9       33.4      29.49       33.4        395       1374      -1226      -0.49       0.00       0.00      0.000
2:32am            218          1          2         26         80       75.9       33.4      29.49       33.4        395       1374      -1226      -0.48       0.00       0.00      0.000
2:33am            213          1          3         26         80       75.9       33.4      29.49       33.4        395       1374      -1226      -0.47       0.00       0.00      0.000
2:34am            213          0          3         26         80       75.9       33.4      29.49       33.4        395       1374      -1226      -0.46       0.00       0.00      0.000
2:35am            213          1          3         26         80       75.9       33.4      29.49       33.4        395       1374      -1226      -0.45       0.00       0.00      0.000
2:36am            213          0          1         26         80       75.9       33.4      29.49       33.4        395       1374      -1226      -0.45       0.00       0.00      0.000
2:37am            213          2          2         26         80       75.9       33.4      29.49       32.5        395       1374      -1226      -0.44       0.00       0.00      0.000
2:38am            213          2          2         26         80       75.9       33.4      29.49       32.5        395       1374      -1226      -0.43       0.00       0.00      0.000
2:39am            213          0          2         26         80       75.9       33.4      29.49       33.4        396       1374      -1225      -0.42       0.00       0.00      0.000
2:40am            213          1          2         26         80       75.9       33.4      29.49       33.4        396       1374      -1225      -0.42       0.00       0.00      0.000
2:41am            213          1          2         26         80       75.9       33.3      29.49       33.3        396       1373      -1232      -0.51       0.00       0.00      0.000
2:42am            213          1          2         26         80       75.9       33.4      29.49       33.4        396       1374      -1225      -0.40       0.00       0.00      0.000
2:43am            213          2          2         26         80       75.9       33.4      29.49       32.5        396       1374      -1225      -0.40       0.00       0.00      0.000
2:44am            213          1          2         26         80       75.9       33.4      29.49       33.4        396       1374      -1225      -0.39       0.00       0.00      0.000
2:45am            213          2          2         26         80       76.1       33.4      29.49       32.5        396       1374      -1225      -0.38       0.00       0.00      0.000
2:46am            212          2          3         26         80       76.1       33.5      29.49       32.6        397       1374      -1217      -0.28       0.00       0.00      0.000
2:47am            210          3          3         26         80       76.1       33.5      29.49       31.0        397       1374      -1217      -0.27       0.00       0.00      0.000
2:48am            210          3          3         26         80       76.1       33.5      29.49       31.0        397       1374      -1217      -0.27       0.00       0.00      0.000
2:49am            177          4          4         26         80       76.1       33.5      29.49       29.8        397       1374      -1217      -0.26       0.00       0.00      0.000
2:50am            202          3          5         26         80       76.1       33.6      29.49       31.1        397       1375      -1210      -0.16       0.00       0.00      0.000
2:51am            202          2          3         26         80       76.1       33.6      29.49       32.7        397       1375      -1210      -0.16       0.00       0.00      0.000
2:52am            197          1          3         28         80       76.1       33.6      29.49       33.6        398       1375      -1208      -0.16       0.00       0.00      0.000
2:53am            197          3          3         26         80       76.1       33.6      29.49       31.1        399       1375      -1207      -0.15       0.00       0.00      0.000
2:54am            197          3          3         26         80       76.1       33.6      29.49       31.1        399       1375      -1207      -0.15       0.00       0.00      0.000
2:55am            194          3          3         26         80       76.1       33.6      29.49       31.1        401       1375      -1205      -0.15       0.00       0.00      0.000
2:56am            195          2          3         26         80       76.1       33.7      29.49       32.8        401       1375      -1198      -0.05       0.00       0.00      0.000
2:57am            193          2          3         26         80       75.9       33.7      29.49       32.8        401       1375      -1198      -0.05       0.00       0.00      0.000
2:58am            186          1          4         26         80       75.9       33.8      29.49       33.8        401       1376      -1191       0.05       0.00       0.00      0.000
2:59am            180          4          5         26         80       75.9       33.8      29.49       30.2        402       1376      -1190       0.05       0.00       0.00      0.000
3:00am            181          2          5         26         80       75.9       33.8      29.49       32.9        402       1376      -1190       0.05       0.00       0.00      0.000
3:01am            178          1          3         26         80       76.1       33.9      29.49       33.9        402       1377      -1183       0.15       0.00       0.00      0.000
3:02am            171          2          3         26         80       76.1       34.0      29.49       33.2        403       1377      -1175       0.25       0.00       0.00      0.000
3:03am            171          2          3         26         80       76.1       34.0      29.49       33.2        404       1377      -1174       0.24       0.00       0.00      0.000
3:04am            187          1          4         26         80       76.1       34.0      29.49       34.0        403       1377      -1175       0.24       0.00       0.00      0.000
3:05am            187          2          4         26         80       76.1       34.1      29.49       33.3        404       1378      -1167       0.33       0.00       0.00      0.000
3:06am            187          2          3         26         80       76.1       34.1      29.49       33.3        405       1378      -1165       0.33       0.00       0.00      0.000
3:07am            187          1          3         26         79       76.1       34.1      29.48       34.1        406       1455      -1164       0.32       0.00       0.00      0.000
3:08am            200          2          3         26         80       76.1       34.1      29.48       33.3        406       1378      -1164       0.32       0.00       0.00      0.000
3:09am            204          2          3         26         79       76.1       34.0      29.48       33.2        406       1454      -1171       0.22       0.00       0.00      0.000
3:10am            213          1          3         26         79       76.1       34.1      29.49       34.1        405       1455      -1165       0.31       0.00       0.00      0.000
3:11am            202          2          2         26         80       76.1       34.0      29.48       33.2        407       1377      -1169       0.21       0.00       0.00      0.000
3:12am            201          3          3         26         80       76.1       34.1      29.48       31.7        407       1378      -1162       0.30       0.00       0.00      0.000
3:13am            201          1          3         26         80       76.1       34.1      29.48       34.1        407       1378      -1162       0.30       0.00       0.00      0.000
3:14am            201          1          3         26         80       76.1       34.1      29.48       34.1        407       1378      -1162       0.29       0.00       0.00      0.000
3:15am            191          3          3         26         80       76.1       34.1      29.48       31.7        409       1378      -1160       0.29       0.00       0.00      0.000
3:16am            186          2          3         26         80       76.1       34.1      29.48       33.3        410       1378      -1159       0.28       0.00       0.00      0.000
3:17am            197          2          3         26         80       76.1       34.0      29.48       33.2        410       1377      -1166       0.18       0.00       0.00      0.000
3:18am            201          2          7         26         80       76.1       33.9      29.48       33.1        411       1377      -1171       0.08       0.00       0.00      0.000
3:19am            201          2          7         26         80       76.1       33.9      29.48       33.1        412       1377      -1170       0.08       0.00       0.00      0.000
3:20am            201          1          7         26         80       76.1       33.9      29.48       33.9        412       1377      -1170       0.07       0.00       0.00      0.000
3:21am            204          2          3         26         80       76.1       33.9      29.48       33.1        412       1377      -1170       0.07       0.00       0.00      0.000
3:22am            204          2          3         26         80       76.1       33.8      29.48       32.9        412       1376      -1177      -0.03       0.00       0.00      0.000
3:23am            204          2          3         26         80       76.1       33.7      29.48       32.8        412       1375      -1184      -0.12       0.00       0.00      0.000
3:24am            197          3          3         26         80       76.1       33.7      29.48       31.2        412       1375      -1184      -0.12       0.00       0.00      0.000
3:25am            199          2          3         26         80       76.1       33.7      29.48       32.8        412       1375      -1184      -0.12       0.00       0.00      0.000
3:26am            199          3          3         26         80       76.1       33.7      29.48       31.2        412       1375      -1184      -0.12       0.00       0.00      0.000
3:27am            199          2          3         26         80       76.1       33.7      29.48       32.8        413       1375      -1183      -0.12       0.00       0.00      0.000
3:28am            198          2          3         26         80       76.1       33.8      29.48       32.9        412       1376      -1177      -0.02       0.00       0.00      0.000
3:29am            185          3          3         26         81       76.1       33.7      29.48       31.2        413       1300      -1183      -0.11       0.00       0.00      0.000
3:30am            185          2          3         26         81       76.1       33.7      29.48       32.8        413       1300      -1183      -0.11       0.00       0.00      0.000
3:31am            241          3          4         26         81       76.1       33.7      29.48       31.2        413       1300      -1183      -0.11       0.00       0.00      0.000
3:32am            227          2          4         26         81       76.1       33.8      29.48       32.9        412       1300      -1177      -0.01       0.00       0.00      0.000
3:33am            227          2          4         26         81       76.1       33.7      29.48       32.8        412       1300      -1184      -0.11       0.00       0.00      0.000
3:34am            214          3          4         26         81       76.1       33.7      29.48       31.2        413       1300      -1183      -0.11       0.00       0.00      0.000
3:35am            173          2          4         26         81       76.1       33.7      29.48       32.8        413       1300      -1183      -0.10       0.00       0.00      0.000
3:36am            181          5          5         26         81       76.1       33.7      29.48       29.1        413       1300      -1183      -0.10       0.00       0.00      0.000
3:37am            181          2          5         26         81       76.1       33.7      29.48       32.8        413       1300      -1183      -0.10       0.00       0.00      0.000
3:38am            181          2          5         26         81       76.1       33.7      29.48       32.8        413       1300      -1183      -0.10       0.00       0.00      0.000
3:39am            181          2          5         26         81       76.1       33.7      29.48       32.8        413       1300      -1183      -0.10       0.00       0.00      0.000
3:40am            181          1          5         26         81       76.1       33.7      29.48       33.7        413       1300      -1183      -0.10       0.00       0.00      0.000
3:41am            208          2          5         26         81       76.1       33.7      29.48       32.8        413       1300      -1183      -0.10       0.00       0.00      0.000
3:42am            172          5          5         26         81       76.1       33.7      29.48       29.1        414       1300      -1182      -0.09       0.00       0.00      0.000
3:43am            202          2          6         26         81       76.1       33.7      29.47       32.8        415       1300      -1181      -0.09       0.00       0.00      0.000
3:44am            202          2          6         26         81       76.1       33.8      29.47       32.9        415       1300      -1174       0.01       0.00       0.00      0.000
3:45am            206          2          6         26         81       76.1       33.8      29.47       32.9        415       1300      -1174       0.01       0.00       0.00      0.000
3:46am            231          3          3         26         81       76.1       33.8      29.47       31.4        415       1300      -1174       0.01       0.00       0.00      0.000
3:47am            206          2          4         26         81       76.1       33.8      29.48       32.9        414       1300      -1175       0.01       0.00       0.00      0.000
3:48am            206          2          4         26         81       76.1       33.8      29.48       32.9        414       1300      -1175       0.01       0.00       0.00      0.000
3:49am            213          1          4         26         81       76.1       33.8      29.47       33.8        415       1300      -1174       0.01       0.00       0.00      0.000
3:50am            210          2          4         28         81       76.1       33.8      29.47       32.9        415       1300      -1174       0.01       0.00       0.00      0.000
3:51am            216          3          3         26         81       76.1       33.8      29.47       31.4        415       1300      -1174       0.01       0.00       0.00      0.000
3:52am            183          2          3         26         81       76.1       33.8      29.47       32.9        416       1300      -1173       0.01       0.00       0.00      0.000
3:53am            183          2          3         26         81       76.1       33.8      29.47       32.9        415       1300      -1174       0.01       0.00       0.00      0.000
3:54am            183          1          3         26         81       76.1       33.8      29.47       33.8        415       1300      -1174       0.01       0.00       0.00      0.000
3:55am            183          2          3         26         81       76.1       33.8      29.48       32.9        414       1300      -1175       0.01       0.00       0.00      0.000
3:56am            237          1          3         26         81       76.1       33.9      29.47       33.9        415       1301      -1167       0.10       0.00       0.00      0.000
3:57am            237          2          3         26         81       76.1       33.9      29.48       33.1        414       1301      -1168       0.10       0.00       0.00      0.000
3:58am            233          1          6         26         81       76.1       34.0      29.47       34.0        416       1302      -1159       0.20       0.00       0.00      0.000
3:59am            226          2          6         26         81       76.1       34.0      29.47       33.2        415       1302      -1160       0.20       0.00       0.00      0.000
4:00am            200          3          6         26         81       76.1       34.1      29.47       31.7        415       1302      -1153       0.29       0.00       0.00      0.000
4:01am            212          2          7         26         81       76.3       34.1      29.47       33.3        415       1302      -1153       0.29       0.00       0.00      0.000
4:02am            202          5          7         26         81       76.1       34.1      29.47       29.5        416       1302      -1152       0.28       0.00       0.00      0.000
4:03am            222          2          7         26         81       76.1       34.1      29.47       33.3        418       1302      -1149       0.28       0.00       0.00      0.000
4:04am            196          4          7         26         81       76.1       34.1      29.47       30.5        418       1302      -1149       0.27       0.00       0.00      0.000
4:05am            199          5          7         26         81       76.1       34.1      29.47       29.5        418       1302      -1148       0.27       0.00       0.00      0.000
4:06am            199          1          5         26         81       76.3       34.2      29.47       34.2        419       1303      -1140       0.36       0.00       0.00      0.000
4:07am            197          1          5         26         81       76.1       34.2      29.47       34.2        420       1303      -1139       0.36       0.00       0.00      0.000
4:08am            197          1          5         26         81       76.1       34.2      29.47       34.2        421       1303      -1138       0.35       0.00       0.00      0.000
4:09am            197          1          5         26         81       76.1       34.2      29.47       34.2        420       1303      -1139       0.34       0.00       0.00      0.000
4:10am            197          2          5         26         81       76.1       34.2      29.47       33.4        420       1303      -1139       0.34       0.00       0.00      0.000
4:11am            172          2          3         26         81       76.3       34.2      29.47       33.4        420       1303      -1139       0.33       0.00       0.00      0.000
4:12am            172          1          3         26         81       76.1       34.2      29.47       34.2        420       1303      -1139       0.33       0.00       0.00      0.000
4:13am            172          1          3         26         81       76.1       34.1      29.47       34.1        422       1302      -1144       0.22       0.00       0.00      0.000
4:14am            172          0          3         26         81       76.1       34.1      29.47       34.1        423       1302      -1143       0.22       0.00       0.00      0.000
4:15am            172          1          3         26         81       76.1       34.1      29.46       34.1        424       1302      -1141       0.22       0.00       0.00      0.000
4:16am            172          2          2         26         81       76.1       34.1      29.46       33.3        424       1302      -1141       0.21       0.00       0.00      0.000
4:17am            172          2          3         26         81       76.1       34.0      29.46       33.2        424       1302      -1148       0.11       0.00       0.00      0.000
4:18am            172          2          3         26         81       76.1       34.0      29.46       33.2        424       1302      -1148       0.11       0.00       0.00      0.000
4:19am            172          1          3         26         81       76.3       34.0      29.46       34.0        424       1302      -1148       0.11       0.00       0.00      0.000
4:20am            172          2          3         26         81       76.3       33.9      29.46       33.1        424       1301      -1155       0.01       0.00       0.00      0.000
4:21am            222          4          4         26         81       76.3       33.9      29.46       30.3        425       1301      -1154       0.01       0.00       0.00      0.000
4:22am            221          3          4         26         81       76.3       33.9      29.46       31.5        425       1301      -1154       0.01       0.00       0.00      0.000
4:23am            211          2          6         26         81       76.3       33.9      29.46       33.1        426       1301      -1153       0.01       0.00       0.00      0.000
4:24am            211          2          6         26         81       76.3       33.9      29.46       33.1        426       1301      -1153       0.01       0.00       0.00      0.000
4:25am            211          2          6         26         81       76.3       33.9      29.46       33.1        427       1301      -1152       0.01       0.00       0.00      0.000
4:26am            211          1          2         26         81       76.3       33.9      29.46       33.9        427       1301      -1152       0.01       0.00       0.00      0.000
4:27am            214          1          4         26         81       76.3       33.9      29.46       33.9        427       1301      -1152       0.01       0.00       0.00      0.000
4:28am            237          1          4         26         82       76.3       33.9      29.46       33.9        427       1226      -1152       0.01       0.00       0.00      0.000
4:29am            195          3          6         26         82       76.3       33.9      29.46       31.5        427       1226      -1152       0.01       0.00       0.00      0.000
4:30am            195          2          6         26         82       76.3       33.9      29.46       33.1        426       1226      -1153       0.01       0.00       0.00      0.000
4:31am            259          3          4         26         81       76.3       33.9      29.46       31.5        426       1301      -1153       0.01       0.00       0.00      0.000
4:32am            255          1          4         26         82       76.3       33.9      29.46       33.9        425       1226      -1154       0.01       0.00       0.00      0.000
4:33am            195          4          4         26         82       76.3       33.9      29.46       30.3        426       1226      -1153       0.01       0.00       0.00      0.000
4:34am            195          2          4         26         82       76.3       33.9      29.46       33.1        426       1226      -1153       0.01       0.00       0.00      0.000
4:35am            195          2          4         26         82       76.3       33.9      29.46       33.1        425       1226      -1154       0.01       0.00       0.00      0.000
4:36am            195          2          3         26         82       76.3       33.9      29.46       33.1        426       1226      -1153       0.01       0.00       0.00      0.000
4:37am            195          2          3         26         82       76.3       34.0      29.46       33.2        427       1227      -1145       0.10       0.00       0.00      0.000
4:38am            195          3          3         26         82       76.3       33.9      29.46       31.5        427       1226      -1152       0.00       0.00       0.00      0.000
4:39am            195          2          3         26         82       76.3       33.9      29.46       33.1        427       1226      -1152       0.00       0.00       0.00      0.000
4:40am            195          2          3         26         82       76.3       33.8      29.46       32.9        426       1226      -1160      -0.10       0.00       0.00      0.000
4:41am            220          2          3         26         82       76.3       33.8      29.46       32.9        426       1226      -1160      -0.09       0.00       0.00      0.000
4:42am            220          2          3         26         82       76.3       33.8      29.46       32.9        426       1226      -1160      -0.09       0.00       0.00      0.000
4:43am            220          2          3         26         82       76.3       33.7      29.46       32.8        426       1225      -1167      -0.19       0.00       0.00      0.000
4:44am            220          2          3         26         82       76.3       33.6      29.46       32.7        426       1224      -1174      -0.29       0.00       0.00      0.000
4:45am            220          3          3         26         82       76.3       33.5      29.46       31.0        427       1224      -1180      -0.38       0.00       0.00      0.000
4:46am            220          1          3         26         82       76.3       33.5      29.46       33.5        427       1224      -1180      -0.38       0.00       0.00      0.000
4:47am            220          1          3         26         82       76.3       33.4      29.46       33.4        427       1223      -1187      -0.47       0.00       0.00      0.000
4:48am            222          4          4         26         82       76.3       33.4      29.46       29.7        428       1223      -1186      -0.46       0.00       0.00      0.000
4:49am            237          1          4         26         82       76.3       33.5      29.46       33.5        428       1224      -1179      -0.36       0.00       0.00      0.000
4:50am            229          2          4         26         82       76.3       33.4      29.46       32.5        428       1223      -1186      -0.45       0.00       0.00      0.000
4:51am            213          3          6         26         82       76.3       33.4      29.46       30.9        428       1223      -1186      -0.44       0.00       0.00      0.000
4:52am            220          4          6         26         83       76.3       33.5      29.46       29.8        428       1150      -1179      -0.33       0.00       0.00      0.000
4:53am            220          2          6         26         82       76.3       33.5      29.46       32.6        428       1224      -1179      -0.33       0.00       0.00      0.000
4:54am            218          2          6         26         83       76.3       33.5      29.46       32.6        428       1150      -1179      -0.32       0.00       0.00      0.000
4:55am            216          2          6         28         82       76.3       33.5      29.46       32.6        427       1224      -1180      -0.32       0.00       0.00      0.000
4:56am            220          2          3         26         83       76.3       33.5      29.46       32.6        428       1150      -1179      -0.31       0.00       0.00      0.000
4:57am            220          2          3         26         83       76.3       33.5      29.46       32.6        428       1150      -1179      -0.31       0.00       0.00      0.000
4:58am            220          1          3         26         83       76.3       33.5      29.46       33.5        428       1150      -1179      -0.30       0.00       0.00      0.000
4:59am            220          2          3         26         82       76.3       33.5      29.46       32.6        428       1224      -1179      -0.30       0.00       0.00      0.000
5:00am            220          2          3         26         83       76.3       33.5      29.46       32.6        428       1150      -1179      -0.29       0.00       0.00      0.000
5:01am            220          1          3         26         83       76.3       33.5      29.46       33.5        428       1150      -1179      -0.29       0.00       0.00      0.000
5:02am            220          2          3         26         83       76.3       33.6      29.46       32.7        428       1150      -1172      -0.19       0.00       0.00      0.000
5:03am            236          2          4         26         83       76.3       33.6      29.46       32.7        427       1150      -1173      -0.18       0.00       0.00      0.000
5:04am            235          1          4         26         83       76.3       33.6      29.46       33.6        427       1150      -1173      -0.18       0.00       0.00      0.000
5:05am            235          2          4         26         83       76.3       33.6      29.46       32.7        427       1150      -1173      -0.17       0.00       0.00      0.000
5:06am            251          1          3         26         83       76.3       33.5      29.46       33.5        428       1150      -1179      -0.27       0.00       0.00      0.000
5:07am            208          3          3         26         83       76.3       33.6      29.46       31.1        428       1150      -1172      -0.17       0.00       0.00      0.000
5:08am            214          2          3         26         83       76.3       33.6      29.46       32.7        428       1150      -1172      -0.17       0.00       0.00      0.000
5:09am            214          2          3         26         83       76.3       33.5      29.46       32.6        428       1150      -1179      -0.26       0.00       0.00      0.000
5:10am            181          2          4         26         83       76.3       33.6      29.46       32.7        428       1150      -1172      -0.16       0.00       0.00      0.000
5:11am            181          1          2         26         83       76.3       33.7      29.46       33.7        428       1151      -1165      -0.06       0.00       0.00      0.000
5:12am            181          1          2         26         83       76.3       33.7      29.46       33.7        428       1151      -1165      -0.06       0.00       0.00      0.000
5:13am            222          1          6         26         83       76.3       33.7      29.46       33.7        428       1151      -1165      -0.06       0.00       0.00      0.000
5:14am            222          2          6         26         83       76.3       33.8      29.46       32.9        428       1151      -1158       0.04       0.00       0.00      0.000
5:15am            222          2          6         26         83       76.3       33.8      29.46       32.9        428       1151      -1158       0.04       0.00       0.00      0.000
5:16am            212          1          4         26         83       76.3       33.8      29.46       33.8        428       1151      -1158       0.04       0.00       0.00      0.000
5:17am            212          2          4         26         83       76.3       33.8      29.46       32.9        428       1151      -1158       0.04       0.00       0.00      0.000
5:18am            212          0          4         26         83       76.3       33.8      29.46       33.8        428       1151      -1158       0.04       0.00       0.00      0.000
5:19am            211          2          4         26         83       76.3       33.9      29.46       33.1        428       1152      -1151       0.14       0.00       0.00      0.000
5:20am            216          2          4         26         83       76.3       33.8      29.46       32.9        428       1151      -1158       0.04       0.00       0.00      0.000
5:21am            216          2          3         26         83       76.3       33.8      29.46       32.9        428       1151      -1158       0.04       0.00       0.00      0.000
5:22am            183          2          3         26         83       76.3       33.8      29.46       32.9        428       1151      -1158       0.04       0.00       0.00      0.000
5:23am            183          2          3         26         83       76.3       33.8      29.46       32.9        428       1151      -1158       0.04       0.00       0.00      0.000
5:24am            183          1          3         26         83       76.3       33.7      29.46       33.7        428       1151      -1165      -0.06       0.00       0.00      0.000
5:25am            235          4          4         26         83       76.3       33.6      29.46       29.9        428       1150      -1172      -0.16       0.00       0.00      0.000
5:26am            202          3          5         26         83       76.3       33.7      29.46       31.2        429       1151      -1164      -0.06       0.00       0.00      0.000
5:27am            203          3          5         26         83       76.3       33.7      29.46       31.2        429       1151      -1164      -0.06       0.00       0.00      0.000
5:28am            203          2          5         26         83       76.3       33.7      29.46       32.8        429       1151      -1164      -0.06       0.00       0.00      0.000
5:29am            203          2          5         26         83       76.3       33.7      29.46       32.8        429       1151      -1164      -0.05       0.00       0.00      0.000
5:30am            203          2          5         26         83       76.3       33.7      29.46       32.8        429       1151      -1162      -0.05       0.00       0.00      0.000
5:31am            203          3          4         26         83       76.3       33.8      29.46       31.4        429       1151      -1155       0.05       0.00       0.00      0.000
5:32am            200          1          4         26         84       76.3       33.8      29.46       33.8        429       1078      -1157       0.05       0.00       0.00      0.000
5:33am            207          2          4         26         83       76.3       33.8      29.46       32.9        428       1151      -1158       0.04       0.00       0.00      0.000
5:34am            207          1          4         26         83       76.3       33.8      29.46       33.8        428       1151      -1158       0.04       0.00       0.00      0.000
5:35am            207          1          4         26         83       76.3       33.8      29.46       33.8        429       1151      -1157       0.04       0.00       0.00      0.000
5:36am            207          2          2         26         83       76.3       33.8      29.46       32.9        429       1151      -1157       0.04       0.00       0.00      0.000
5:37am            214          3          3         26         83       76.3       33.8      29.46       31.4        428       1151      -1158       0.04       0.00       0.00      0.000
5:38am            175          2          3         26         84       76.3       33.9      29.46       33.1        428       1079      -1151       0.14       0.00       0.00      0.000
5:39am            175          2          3         26         84       76.3       33.9      29.46       33.1        428       1079      -1151       0.14       0.00       0.00      0.000
5:40am            175          2          3         26         84       76.3       33.9      29.46       33.1        428       1079      -1151       0.14       0.00       0.00      0.000
5:41am            175          2          3         26         84       76.3       33.9      29.46       33.1        428       1079      -1151       0.13       0.00       0.00      0.000
5:42am            232          2          4         26         84       76.3       34.0      29.46       33.2        428       1079      -1144       0.23       0.00       0.00      0.000
5:43am            211          1          5         26         84       76.3       34.1      29.46       34.1        428       1080      -1137       0.33       0.00       0.00      0.000
5:44am            211          2          5         26         84       76.3       34.1      29.46       33.3        428       1080      -1137       0.32       0.00       0.00      0.000
5:45am            211          2          5         26         84       76.3       34.2      29.46       33.4        428       1080      -1130       0.41       0.00       0.00      0.000
5:46am            211          2          2         26         84       76.3       34.3      29.46       33.5        428       1081      -1123       0.51       0.00       0.00      0.000
5:47am            208          2          2         26         84       76.3       34.3      29.46       33.5        428       1081      -1123       0.50       0.00       0.00      0.000
5:48am            219          2          5         26         84       76.3       34.3      29.46       33.5        428       1081      -1123       0.49       0.00       0.00      0.000
5:49am            238          1          5         26         84       76.3       34.4      29.46       34.4        428       1081      -1116       0.58       0.00       0.00      0.000
5:50am            238          2          5         26         84       76.3       34.4      29.46       33.6        428       1081      -1116       0.57       0.00       0.00      0.000
5:51am            253          4          4         26         84       76.3       34.4      29.46       30.8        428       1081      -1116       0.56       0.00       0.00      0.000
5:52am            253          2          4         26         84       76.3       34.6      29.46       33.8        427       1082      -1103       0.75       0.00       0.00      0.000
5:53am            253          2          4         26         84       76.3       34.6      29.46       33.8        428       1082      -1102       0.74       0.00       0.00      0.000
5:54am            259          3          4         26         83       76.3       34.6      29.46       32.3        428       1156      -1102       0.73       0.00       0.00      0.000
5:55am            258          1          4         26         84       76.3       34.6      29.46       34.6        428       1082      -1102       0.72       0.00       0.00      0.000
5:56am            258          1          3         26         83       76.3       34.6      29.46       34.6        428       1156      -1102       0.71       0.00       0.00      0.000
5:57am            216          1          5         26         83       76.3       34.6      29.46       34.6        428       1156      -1102       0.69       0.00       0.00      0.000
5:58am            216          1          5         26         84       76.3       34.6      29.46       34.6        428       1082      -1102       0.68       0.00       0.00      0.000
5:59am            216          2          5         26         83       76.3       34.5      29.46       33.7        428       1155      -1109       0.57       0.00       0.00      0.000
6:00am            208          2          5         26         84       76.3       34.6      29.46       33.8        428       1082      -1102       0.66       0.00       0.00      0.000
6:01am            208          1          2         26         84       76.4       34.5      29.46       34.5        428       1082      -1109       0.55       0.00       0.00      0.000
6:02am            208          2          2         26         84       76.4       34.5      29.46       33.7        428       1082      -1109       0.54       0.00       0.00      0.000
6:03am            208          1          2         26         84       76.4       34.5      29.46       34.5        428       1082      -1109       0.53       0.00       0.00      0.000
6:04am            208          3          3         26         84       76.4       34.6      29.46       32.3        429       1082      -1101       0.62       0.00       0.00      0.000
6:05am            175          2          3         26         84       76.4       34.6      29.46       33.8        429       1082      -1101       0.61       0.00       0.00      0.000
6:06am            175          1          3         26         84       76.4       34.6      29.46       34.6        429       1082      -1101       0.60       0.00       0.00      0.000
6:07am            175          2          3         26         84       76.6       34.6      29.46       33.8        429       1082      -1101       0.59       0.00       0.00      0.000
6:08am            214          1          4         26         84       76.4       34.6      29.46       34.6        429       1082      -1101       0.58       0.00       0.00      0.000
6:09am            214          2          4         26         84       76.4       34.7      29.46       33.9        429       1083      -1094       0.67       0.00       0.00      0.000
6:10am            210          3          5         26         84       76.4       34.6      29.46       32.3        429       1082      -1100       0.56       0.00       0.00      0.000
6:11am            218          3          4         26         84       76.4       34.7      29.46       32.4        429       1083      -1093       0.65       0.00       0.00      0.000
6:12am            218          1          4         26         84       76.4       34.8      29.46       34.8        429       1083      -1086       0.74       0.00       0.00      0.000
6:13am            218          1          4         26         84       76.4       34.8      29.46       34.8        429       1083      -1086       0.72       0.00       0.00      0.000
6:14am            218          1          4         26         83       76.4       34.8      29.46       34.8        429       1157      -1087       0.71       0.00       0.00      0.000
6:15am            208          1          4         26         83       76.4       34.7      29.46       34.7        429       1156      -1094       0.60       0.00       0.00      0.000
6:16am            208          2          2         26         83       76.4       34.7      29.46       33.9        429       1156      -1093       0.59       0.00       0.00      0.000
6:17am            208          1          3         26         84       76.4       34.6      29.46       34.6        430       1082      -1099       0.48       0.00       0.00      0.000
6:18am            208          2          3         26         83       76.4       34.6      29.46       33.8        430       1156      -1099       0.47       0.00       0.00      0.000
6:19am            208          2          3         26         84       76.4       34.6      29.46       33.8        430       1082      -1099       0.47       0.00       0.00      0.000
6:20am            208          2          3         26         84       76.4       34.6      29.46       33.8        430       1082      -1099       0.46       0.00       0.00      0.000
6:21am            208          1          2         26         84       76.6       34.6      29.46       34.6        430       1082      -1099       0.45       0.00       0.00      0.000
6:22am            211          1          4         26         84       76.6       34.6      29.46       34.6        429       1082      -1100       0.44       0.00       0.00      0.000
6:23am            211          3          4         26         84       76.6       34.5      29.46       32.1        429       1082      -1107       0.34       0.00       0.00      0.000
6:24am            211          2          4         26         84       76.6       34.6      29.46       33.8        429       1082      -1100       0.43       0.00       0.00      0.000
6:25am            236          2          4         26         84       76.6       34.5      29.46       33.7        429       1082      -1107       0.32       0.00       0.00      0.000
6:26am            236          2          2         26         84       76.6       34.5      29.46       33.7        430       1082      -1105       0.32       0.00       0.00      0.000
6:27am            236          1          2         26         84       76.6       34.4      29.46       34.4        430       1081      -1112       0.21       0.00       0.00      0.000
6:28am            236          1          3         26         84       76.6       34.5      29.46       34.5        429       1082      -1107       0.31       0.00       0.00      0.000
6:29am            237          2          3         26         84       76.6       34.4      29.46       33.6        429       1081      -1114       0.21       0.00       0.00      0.000
6:30am            236          2          3         26         84       76.6       34.5      29.46       33.7        429       1082      -1107       0.30       0.00       0.00      0.000
6:31am            236          1          3         26         84       76.6       34.5      29.46       34.5        429       1082      -1107       0.30       0.00       0.00      0.000
6:32am            205          1          3         26         85       76.6       34.5      29.46       34.5        429       1009      -1108       0.29       0.00       0.00      0.000
6:33am            174          3          4         26         84       76.6       34.5      29.46       32.1        429       1082      -1107       0.29       0.00       0.00      0.000
6:34am            286          2          4         26         84       76.6       34.6      29.46       33.8        429       1082      -1101       0.38       0.00       0.00      0.000
6:35am            286          0          4         26         84       76.6       34.6      29.46       34.6        429       1082      -1101       0.38       0.00       0.00      0.000
6:36am            202          3          5         26         84       76.6       34.5      29.46       32.1        429       1082      -1107       0.27       0.00       0.00      0.000
6:37am            202          1          5         26         85       76.6       34.5      29.46       34.5        429       1009      -1108       0.27       0.00       0.00      0.000
6:38am            202          1          5         26         84       76.6       34.5      29.46       34.5        429       1082      -1108       0.26       0.00       0.00      0.000
6:39am            202          1          5         26         84       76.8       34.5      29.46       34.5        429       1082      -1108       0.26       0.00       0.00      0.000
6:40am            202          2          5         26         84       76.6       34.5      29.46       33.7        429       1082      -1108       0.25       0.00       0.00      0.000
6:41am            203          1          2         26         85       76.6       34.4      29.46       34.4        428       1008      -1116       0.15       0.00       0.00      0.000
6:42am            203          0          2         26         85       76.6       34.5      29.46       34.5        428       1009      -1109       0.25       0.00       0.00      0.000
6:43am            203          2          2         26         85       76.6       34.4      29.46       33.6        428       1008      -1116       0.14       0.00       0.00      0.000
6:44am            243          0          3         26         85       76.6       34.4      29.46       34.4        428       1008      -1116       0.14       0.00       0.00      0.000
6:45am            242          1          3         26         85       76.6       34.4      29.46       34.4        428       1008      -1116       0.14       0.00       0.00      0.000
6:46am            254          1          2         26         85       76.6       34.4      29.46       34.4        428       1008      -1116       0.14       0.00       0.00      0.000
6:47am            180          2          3         26         85       76.8       34.4      29.46       33.6        428       1008      -1116       0.14       0.00       0.00      0.000
6:48am            181          0          3         26         85       76.8       34.4      29.46       34.4        428       1008      -1116       0.13       0.00       0.00      0.000
6:49am            180          0          3         26         85       76.8       34.4      29.46       34.4        425       1008      -1119       0.13       0.00       0.00      0.000
6:50am            180          2          3         26         85       76.8       34.3      29.46       33.5        425       1008      -1126       0.03       0.00       0.00      0.000
6:51am            180          0          2         26         85       76.8       34.3      29.46       34.3        424       1008      -1127       0.03       0.00       0.00      0.000
6:52am            180          0          2         26         85       76.8       34.3      29.46       34.3        425       1008      -1126       0.03       0.00       0.00      0.000
6:53am            180          1          2         26         85       76.8       34.3      29.46       34.3        426       1008      -1125       0.03       0.00       0.00      0.000
6:54am            180          0          2         26         85       76.8       34.3      29.47       34.3        423       1008      -1129       0.03       0.00       0.00      0.000
6:55am            180          0          2         26         85       76.8       34.2      29.46       34.2        424       1008      -1134      -0.07       0.00       0.00      0.000
6:56am            180          0          1         26         85       76.8       34.2      29.46       34.2        424       1008      -1134      -0.07       0.00       0.00      0.000
6:57am            180          1          1         26         85       76.8       34.2      29.46       34.2        424       1008      -1134      -0.07       0.00       0.00      0.000
6:58am            180          2          2         26         85       76.8       34.2      29.46       33.4        424       1008      -1134      -0.07       0.00       0.00      0.000
6:59am            184          2          3         26         85       76.8       34.2      29.46       33.4        424       1008      -1134      -0.07       0.00       0.00      0.000
7:00am            184          1          3         26         85       76.8       34.3      29.46       34.3        424       1008      -1127       0.03       0.00       0.00      0.000
7:01am            184          0          1         26         85       76.8       34.3      29.47       34.3        423       1008      -1129       0.03       0.00       0.00      0.000
7:02am            184          0          1         26         85       76.8       34.2      29.47       34.2        423       1008      -1136      -0.07       0.00       0.00      0.000
7:03am            184          0          2         26         85       76.8       34.2      29.47       34.2        423       1008      -1136      -0.07       0.00       0.00      0.000
7:04am            184          0          2         26         85       76.8       34.2      29.47       34.2        422       1008      -1137      -0.07       0.00       0.00      0.000
7:05am            184          1          2         26         85       76.8       34.3      29.47       34.3        423       1008      -1129       0.03       0.00       0.00      0.000
7:06am            184          1          1         26         85       76.8       34.3      29.47       34.3        422       1008      -1130       0.03       0.00       0.00      0.000
7:07am            184          0          1         26         85       76.8       34.3      29.47       34.3        422       1008      -1130       0.03       0.00       0.00      0.000
7:08am            184          0          1         26         86       76.8       34.3      29.47       34.3        422        936      -1130       0.03       0.00       0.00      0.000
7:09am            184          3          3         26         86       76.8       34.4      29.47       32.0        422        936      -1123       0.13       0.00       0.00      0.000
7:10am            184          1          3         26         86       76.8       34.5      29.47       34.5        420        937      -1118       0.23       0.00       0.00      0.000
7:11am            184          1          2         26         86       76.8       34.6      29.47       34.6        421        937      -1110       0.32       0.00       0.00      0.000
7:12am            184          1          2         26         86       76.8       34.6      29.47       34.6        420        937      -1111       0.32       0.00       0.00      0.000
7:13am            184          0          2         26         86       77.0       34.7      29.47       34.7        418        938      -1108       0.41       0.00       0.00      0.000
7:14am            203          2          3         26         85       77.0       34.7      29.47       33.9        418       1010      -1106       0.40       0.00       0.00      0.000
7:15am            162          2          3         26         86       77.0       34.8      29.47       34.0        419        938      -1098       0.50       0.00       0.00      0.000
7:16am            162          1          2         26         86       77.0       34.8      29.47       34.8        419        938      -1098       0.49       0.00       0.00      0.000
7:17am            162          0          2         26         85       77.0       34.8      29.47       34.8        420       1010      -1097       0.48       0.00       0.00      0.000
7:18am            185          4          4         26         85       77.0       34.9      29.47       31.4        421       1011      -1089       0.57       0.00       0.00      0.000
7:19am            195          1          4         26         85       77.0       34.9      29.47       34.9        419       1011      -1091       0.56       0.00       0.00      0.000
7:20am            195          1          4         26         85       77.0       35.0      29.47       35.0        418       1011      -1086       0.65       0.00       0.00      0.000
7:21am            186          1          3         26         85       77.0       35.0      29.47       35.0        418       1011      -1086       0.64       0.00       0.00      0.000
7:22am            186          0          3         26         85       77.0       35.1      29.47       35.1        418       1012      -1080       0.73       0.00       0.00      0.000
7:23am            186          1          3         26         85       77.0       35.1      29.47       35.1        418       1012      -1080       0.72       0.00       0.00      0.000
7:24am            186          1          3         26         85       77.0       35.2      29.47       35.2        418       1012      -1073       0.80       0.00       0.00      0.000
7:25am            186          0          3         26         85       77.0       35.2      29.47       35.2        418       1012      -1072       0.79       0.00       0.00      0.000
7:26am            186          0          1         26         85       77.0       35.3      29.47       35.3        419       1013      -1064       0.88       0.00       0.00      0.000
7:27am            186          0          1         26         85       77.0       35.3      29.47       35.3        419       1013      -1064       0.86       0.00       0.00      0.000
7:28am            186          1          1         26         85       77.0       35.3      29.47       35.3        420       1013      -1062       0.85       0.00       0.00      0.000
7:29am            186          1          3         26         85       77.0       35.5      29.47       35.5        421       1013      -1047       1.03       0.00       0.00      0.000
7:30am            186          1          3         26         85       77.0       35.5      29.47       35.5        419       1013      -1050       1.02       0.00       0.00      0.000
7:31am            186          1          2         26         85       77.0       35.5      29.47       35.5        420       1013      -1049       1.00       0.00       0.00      0.000
7:32am            186          1          2         26         85       77.0       35.6      29.47       35.6        419       1014      -1043       1.08       0.00       0.00      0.000
7:33am            186          1          2         26         85       77.0       35.6      29.47       35.6        418       1014      -1044       1.06       0.00       0.00      0.000
7:34am            186          0          2         26         85       77.0       35.7      29.47       35.7        419       1014      -1036       1.15       0.00       0.00      0.000
7:35am            177          3          5         26         85       77.0       35.8      29.47       33.6        418       1015      -1030       1.23       0.00       0.00      0.000
7:36am            193          1          3         26         85       77.0       35.8      29.47       35.8        419       1015      -1029       1.21       0.00       0.00      0.000
7:37am            176          2          3         26         84       77.0       35.9      29.47       35.3        418       1089      -1024       1.28       0.00       0.00      0.000
7:38am            177          1          4         26         84       77.0       36.0      29.47       36.0        418       1089      -1017       1.36       0.00       0.00      0.000
7:39am            177          0          4         26         84       77.0       36.1      29.47       36.1        417       1089      -1011       1.44       0.00       0.00      0.000
7:40am            177          0          4         26         84       77.0       36.1      29.47       36.1        417       1089      -1011       1.42       0.00       0.00      0.000
7:41am            177          0          1         26         84       77.0       36.2      29.47       36.2        416       1090      -1006       1.49       0.00       0.00      0.000
7:42am            179          0          2         26         84       77.0       36.3      29.47       36.3        415       1090      -1000       1.57       0.00       0.00      0.000
7:43am            179          0          2         26         84       77.0       36.3      29.48       36.3        414       1090      -1001       1.54       0.00       0.00      0.000
7:44am            179          0          2         26         84       77.2       36.4      29.48       36.4        414       1091       -994       1.61       0.00       0.00      0.000
7:45am            179          0          2         26         84       77.2       36.5      29.48       36.5        414       1091       -987       1.69       0.00       0.00      0.000
7:46am            234          3          4         26         84       77.0       36.6      29.48       34.5        414       1092       -980       1.76       0.00       0.00      0.000
7:47am            232          1          4         26         84       77.0       36.7      29.48       36.7        414       1092       -973       1.83       0.00       0.00      0.000
7:48am            232          0          4         26         84       77.0       36.8      29.48       36.8        414       1093       -966       1.90       0.00       0.00      0.000
7:49am            232          0          4         26         83       77.0       36.9      29.48       36.9        414       1168       -959       1.96       0.00       0.00      0.000
7:50am            232          0          4         26         83       77.0       36.9      29.48       36.9        414       1168       -959       1.93       0.00       0.00      0.000
7:51am            211          2          4         26         83       77.2       37.0      29.48       36.5        414       1168       -953       2.00       0.00       0.00      0.000
7:52am            192          2          4         26         83       77.2       37.0      29.48       36.5        414       1168       -953       1.96       0.00       0.00      0.000
7:53am            191          1          4         26         83       77.0       37.1      29.48       37.1        414       1169       -946       2.03       0.00       0.00      0.000
7:54am            195          2          4         26         83       77.0       37.2      29.48       36.7        414       1169       -939       2.10       0.00       0.00      0.000
7:55am            234          1          4         26         83       77.0       37.2      29.48       37.2        414       1169       -939       2.06       0.00       0.00      0.000
7:56am            212          2          3         26         83       77.0       37.3      29.48       36.8        414       1170       -932       2.13       0.00       0.00      0.000
7:57am            218          0          3         26         83       77.0       37.2      29.48       37.2        414       1169       -939       1.99       0.00       0.00      0.000
7:58am            218          0          3         26         83       77.2       37.3      29.48       37.3        414       1170       -932       2.06       0.00       0.00      0.000
7:59am            218          0          3         26         83       77.2       37.3      29.48       37.3        414       1170       -932       2.02       0.00       0.00      0.000
8:00am            218          1          3         26         83       77.2       37.3      29.48       37.3        414       1170       -932       1.99       0.00       0.00      0.000
8:01am            218          0          1         27         83       77.2       37.3      29.48       37.3        414       1170       -932       1.96       0.00       0.00      0.000
8:02am            218          0          1         26         83       77.2       37.4      29.48       37.4        414       1170       -925       2.02       0.00       0.00      0.000
8:03am            174          2          2         26         83       77.2       37.4      29.48       36.9        414       1170       -925       1.99       0.00       0.00      0.000
8:04am            175          1          2         26         83       77.2       37.5      29.48       37.5        414       1171       -918       2.06       0.00       0.00      0.000
8:05am            175          0          2         26         83       77.2       37.6      29.47       37.6        415       1171       -910       2.12       0.00       0.00      0.000
8:06am            175          2          2         26         82       77.2       37.6      29.47       37.1        415       1247       -910       2.09       0.00       0.00      0.000
8:07am            204          1          4         26         83       77.2       37.7      29.47       37.7        415       1172       -903       2.15       0.00       0.00      0.000
8:08am            204          1          4         27         82       77.2       37.8      29.47       37.8        415       1248       -896       2.21       0.00       0.00      0.000
8:09am            204          1          4         26         82       77.3       37.8      29.48       37.8        414       1248       -897       2.18       0.00       0.00      0.000
8:10am            204          0          4         27         82       77.3       37.9      29.47       37.9        415       1248       -889       2.24       0.00       0.00      0.000
8:11am            216          2          3         26         82       77.3       38.0      29.48       37.6        414       1249       -883       2.30       0.00       0.00      0.000
8:12am            216          0          3         26         82       77.3       38.0      29.48       38.0        414       1249       -883       2.26       0.00       0.00      0.000
8:13am            216          2          3         26         82       77.3       38.1      29.48       37.7        414       1250       -876       2.33       0.00       0.00      0.000
8:14am            216          1          3         26         82       77.3       38.2      29.48       38.2        414       1250       -870       2.39       0.00       0.00      0.000
8:15am            216          2          3         26         82       77.3       38.3      29.47       37.9        415       1251       -862       2.45       0.00       0.00      0.000
8:16am            195          1          4         26         82       77.3       38.4      29.47       38.4        415       1251       -855       2.50       0.00       0.00      0.000
8:17am            202          2          4         26         82       77.3       38.4      29.47       38.0        415       1251       -855       2.46       0.00       0.00      0.000
8:18am            202          2          4         26         82       77.3       38.5      29.47       38.1        415       1252       -848       2.52       0.00       0.00      0.000
8:19am            157          5          5         26         82       77.3       38.6      29.47       34.8        415       1252       -841       2.58       0.00       0.00      0.000
8:20am            169          0          5         26         82       77.3       38.8      29.47       38.8        415       1254       -827       2.74       0.00       0.00      0.000
8:21am            220          4          4         26         82       77.3       38.9      29.47       36.0        415       1254       -820       2.79       0.00       0.00      0.000
8:22am            237          3          4         26         82       77.3       39.0      29.47       37.2        415       1255       -813       2.84       0.00       0.00      0.000
8:23am            118          1          6         26         82       77.3       39.0      29.47       39.0        415       1255       -813       2.79       0.00       0.00      0.000
8:24am            163          0          6         26         82       77.3       39.2      29.47       39.2        415       1256       -799       2.95       0.00       0.00      0.000
8:25am            164          1          6         27         81       77.3       39.3      29.47       39.3        415       1333       -793       3.00       0.00       0.00      0.000
8:26am            186          4          4         27         81       77.3       39.4      29.47       36.6        415       1334       -786       3.05       0.00       0.00      0.000
8:27am            148          6          6         26         81       77.3       39.6      29.48       35.3        414       1335       -773       3.19       0.00       0.00      0.000
8:28am            232          2          8         27         81       77.3       39.6      29.48       39.3        413       1335       -774       3.14       0.00       0.00      0.000
8:29am            232          1          8         26         80       77.3       39.7      29.48       39.7        413       1413       -767       3.19       0.00       0.00      0.000
8:30am            228          2          8         26         81       77.5       39.8      29.48       39.5        412       1336       -762       3.23       0.00       0.00      0.000
8:31am            238          2          2         27         81       77.5       39.8      29.48       39.5        412       1336       -762       3.18       0.00       0.00      0.000
8:32am            152          2          4         26         81       77.5       40.0      29.48       39.8        413       1337       -747       3.32       0.00       0.00      0.000
8:33am            152          0          4         26         81       77.5       40.0      29.48       40.0        414       1337       -746       3.27       0.00       0.00      0.000
8:34am            153          1          4         28         81       77.5       40.1      29.48       40.1        414       1338       -739       3.32       0.00       0.00      0.000
8:35am            222          2          4         27         81       77.5       40.2      29.47       40.0        415       1339       -731       3.36       0.00       0.00      0.000
8:36am            210          1          3         26         80       77.5       40.3      29.47       40.3        415       1417       -724       3.40       0.00       0.00      0.000
8:37am            220          5          5         27         80       77.5       40.4      29.47       36.9        415       1418       -717       3.45       0.00       0.00      0.000
8:38am            182          1          5         26         79       77.5       40.5      29.47       40.5        415       1497       -710       3.49       0.00       0.00      0.000
8:39am            242          1          5         27         79       77.5       40.6      29.47       40.6        415       1498       -703       3.53       0.00       0.00      0.000
8:40am            207          4          5         26         79       77.5       40.6      29.47       38.0        415       1498       -703       3.47       0.00       0.00      0.000
8:41am            193          1          5         26         79       77.5       40.7      29.47       40.7        415       1499       -696       3.52       0.00       0.00      0.000
8:42am            180          4          5         26         79       77.5       40.7      29.47       38.1        415       1499       -696       3.46       0.00       0.00      0.000
8:43am            218          4          5         26         78       77.5       40.8      29.47       38.2        416       1579       -688       3.50       0.00       0.00      0.000
8:44am            206          6          6         26         78       77.5       40.9      29.47       36.8        416       1580       -682       3.54       0.00       0.00      0.000
8:45am            191          2          6         26         78       77.5       40.9      29.47       40.8        416       1580       -682       3.48       0.00       0.00      0.000
8:46am            181          4          4         26         78       77.5       40.9      29.47       38.4        416       1580       -682       3.42       0.00       0.00      0.000
8:47am            187          2          5         26         78       77.5       41.0      29.47       40.9        416       1581       -675       3.47       0.00       0.00      0.000
8:48am            213          3          5         27         78       77.5       41.0      29.47       39.5        415       1581       -676       3.41       0.00       0.00      0.000
8:49am            215          3          5         27         78       77.5       41.1      29.47       39.6        415       1581       -669       3.45       0.00       0.00      0.000
8:50am            157          1          5         27         77       77.5       41.1      29.47       41.1        415       1662       -669       3.40       0.00       0.00      0.000
8:51am            150          3          4         27         78       77.5       41.1      29.47       39.6        415       1581       -669       3.34       0.00       0.00      0.000
8:52am            177          1          4         27         77       77.5       41.1      29.48       41.1        414       1662       -670       3.28       0.00       0.00      0.000
8:53am            224          2          5         27         78       77.5       41.3      29.48       41.2        413       1583       -658       3.43       0.00       0.00      0.000
8:54am            224          1          5         26         78       77.5       41.3      29.48       41.3        412       1583       -659       3.37       0.00       0.00      0.000
8:55am            223          2          5         26         78       77.5       41.5      29.48       41.4        412       1584       -645       3.52       0.00       0.00      0.000
8:56am            139          3          3         26         77       77.5       41.5      29.48       40.1        411       1665       -646       3.46       0.00       0.00      0.000
8:57am            254          2          3         27         78       77.5       41.6      29.48       41.5        411       1585       -639       3.50       0.00       0.00      0.000
8:58am            162          4          6         27         77       77.5       41.8      29.48       39.4        410       1667       -627       3.64       0.00       0.00      0.000
8:59am            224          3          6         27         76       77.5       41.8      29.48       40.4        410       1749       -627       3.58       0.00       0.00      0.000
9:00am            177          3          6         27         76       77.5       41.8      29.48       40.4        410       1749       -627       3.52       0.00       0.00      0.000
9:01am            177          1          3         26         76       77.5       41.8      29.48       41.8        411       1749       -626       3.46       0.00       0.00      0.000
9:02am            179          0          3         26         77       77.5       41.9      29.48       41.9        410       1668       -620       3.51       0.00       0.00      0.000
9:03am            179          0          3         27         77       77.5       41.9      29.48       41.9        409       1668       -621       3.45       0.00       0.00      0.000
9:04am            179          2          3         27         77       77.5       42.0      29.48       42.0        407       1669       -617       3.49       0.00       0.00      0.000
9:05am            264          4          4         26         77       77.5       42.1      29.48       39.7        406       1670       -611       3.53       0.00       0.00      0.000
9:06am            224          2          4         27         76       77.5       42.1      29.48       42.1        406       1752       -612       3.47       0.00       0.00      0.000
9:07am            210          0          4         26         76       77.5       42.2      29.49       42.2        405       1753       -606       3.52       0.00       0.00      0.000
9:08am            225          3          4         26         76       77.5       42.2      29.49       40.9        405       1753       -606       3.46       0.00       0.00      0.000
9:09am            208          0          4         26         76       77.5       42.3      29.49       42.3        404       1753       -601       3.50       0.00       0.00      0.000
9:10am            156          3          4         27         76       77.5       42.4      29.49       41.1        404       1754       -594       3.54       0.00       0.00      0.000
9:11am            153          1          4         26         75       77.5       42.6      29.49       42.6        405       1839       -579       3.68       0.00       0.00      0.000
9:12am            153          2          4         26         76       77.5       42.8      29.49       42.8        405       1757       -565       3.82       0.00       0.00      0.000
9:13am            157          1          4         26         76       77.5       42.9      29.48       42.9        406       1758       -557       3.85       0.00       0.00      0.000
9:14am            174          3          4         26         75       77.5       43.0      29.48       41.8        406       1842       -551       3.89       0.00       0.00      0.000
9:15am            174          0          4         26         75       77.5       43.3      29.48       43.3        406       1845       -530       4.12       0.00       0.00      0.000
9:16am            175          0          1         27         76       77.5       43.4      29.49       43.4        405       1762       -524       4.15       0.00       0.00      0.000
9:17am            186          1          2         26         76       77.5       43.7      29.49       43.7        405       1764       -504       4.38       0.00       0.00      0.000
9:18am            183          3          6         26         74       77.5       43.8      29.49       42.7        405       1934       -497       4.41       0.00       0.00      0.000
9:19am            288          1          6         27         74       77.5       43.8      29.48       43.8        406       1934       -496       4.34       0.00       0.00      0.000
9:20am            241          3          6         27         74       77.5       43.8      29.49       42.7        405       1934       -497       4.27       0.00       0.00      0.000
9:21am            242          2          3         26         73       77.5       43.8      29.49       43.8        405       2019       -497       4.19       0.00       0.00      0.000
9:22am            243          2          3         27         74       77.5       43.8      29.49       43.8        404       1934       -498       4.13       0.00       0.00      0.000
9:23am            224          0          3         27         74       77.5       43.9      29.49       43.9        404       1934       -491       4.16       0.00       0.00      0.000
9:24am            229          2          3         26         74       77.5       44.0      29.49       44.0        404       1935       -485       4.19       0.00       0.00      0.000
9:25am            229          1          3         27         74       77.5       44.1      29.49       44.1        404       1936       -478       4.22       0.00       0.00      0.000
9:26am            229          0          1         27         74       77.5       44.2      29.49       44.2        404       1937       -471       4.25       0.00       0.00      0.000
9:27am            229          0          1         27         74       77.5       44.3      29.48       44.3        406       1938       -462       4.28       0.00       0.00      0.000
9:28am            203          4          4         27         74       77.5       44.5      29.48       42.5        406       1940       -448       4.40       0.00       0.00      0.000
9:29am            222          1          4         27         73       77.5       44.6      29.49       44.6        405       2027       -443       4.43       0.00       0.00      0.000
9:30am            233          3          4         27         72       77.7       44.7      29.48       43.7        406       2115       -434       4.45       0.00       0.00      0.000
9:31am            240          1          3         27         72       77.5       44.7      29.48       44.7        407       2115       -433       4.38       0.00       0.00      0.000
9:32am            241          2          3         27         72       77.5       44.8      29.48       44.8        409       2116       -423       4.41       0.00       0.00      0.000
9:33am            241          0          3         27         73       77.5       44.8      29.48       44.8        408       2028       -425       4.34       0.00       0.00      0.000
9:34am            233          1          3         27         72       77.5       44.9      29.48       44.9        408       2117       -418       4.37       0.00       0.00      0.000
9:35am            232          3          3         27         72       77.5       45.0      29.48       44.0        408       2117       -411       4.40       0.00       0.00      0.000
9:36am            250          2          3         27         72       77.5       45.1      29.48       45.1        408       2118       -404       4.42       0.00       0.00      0.000
9:37am            255          2          3         27         72       77.5       45.1      29.48       45.1        408       2118       -404       4.35       0.00       0.00      0.000
9:38am            254          1          3         27         71       77.5       45.1      29.48       45.1        407       2207       -405       4.27       0.00       0.00      0.000
9:39am            202          3          3         26         72       77.5       45.3      29.48       44.4        407       2120       -392       4.40       0.00       0.00      0.000
9:40am            257          3          3         27         71       77.5       45.4      29.48       44.5        407       2210       -385       4.43       0.00       0.00      0.000
9:41am            310          2          3         26         71       77.5       45.5      29.48       45.5        407       2211       -378       4.45       0.00       0.00      0.000
9:42am            300          2          4         27         70       77.5       45.4      29.48       45.4        407       2299       -385       4.28       0.00       0.00      0.000
9:43am            300          2          4         26         69       77.5       45.5      29.48       45.5        407       2391       -378       4.31       0.00       0.00      0.000
9:44am            300          3          4         27         70       77.5       45.5      29.48       44.6        407       2300       -378       4.24       0.00       0.00      0.000
9:45am            272          2          4         27         71       77.5       45.6      29.48       45.6        406       2212       -373       4.27       0.00       0.00      0.000
9:46am            212          2          3         26         70       77.5       45.6      29.48       45.6        406       2301       -373       4.20       0.00       0.00      0.000
9:47am            210          1          5         26         70       77.5       45.7      29.48       45.7        406       2302       -367       4.23       0.00       0.00      0.000
9:48am            237          2          5         26         70       77.5       45.7      29.48       45.7        406       2302       -367       4.16       0.00       0.00      0.000
9:49am            247          4          5         26         70       77.5       45.7      29.48       43.9        406       2302       -367       4.09       0.00       0.00      0.000
9:50am            227          2          6         26         69       77.5       45.7      29.48       45.7        407       2393       -365       4.02       0.00       0.00      0.000
9:51am            153          2          3         27         69       77.5       45.7      29.48       45.7        407       2393       -365       3.95       0.00       0.00      0.000
9:52am            251          0          3         27         70       77.5       45.8      29.48       45.8        407       2303       -358       3.99       0.00       0.00      0.000
9:53am            166          1          3         26         70       77.5       45.9      29.48       45.9        408       2304       -350       4.02       0.00       0.00      0.000
9:54am            168          2          3         27         70       77.5       46.1      29.48       46.1        410       2307       -334       4.15       0.00       0.00      0.000
9:55am            214          1          3         26         70       77.5       46.3      29.48       46.3        410       2309       -321       4.28       0.00       0.00      0.000
9:56am            248          4          4         26         70       77.5       46.6      29.48       44.9        410       2312       -300       4.50       0.00       0.00      0.000
9:57am            276          1          6         26         69       77.5       46.7      29.48       46.7        411       2404       -292       4.53       0.00       0.00      0.000
9:58am            242          3          6         27         68       77.5       46.7      29.48       45.9        412       2496       -291       4.46       0.00       0.00      0.000
9:59am            214          2          6         27         67       77.5       46.7      29.48       46.7        412       2590       -291       4.38       0.00       0.00      0.000
10:00am           257          3          6         27         67       77.5       46.7      29.48       45.9        412       2590       -291       4.31       0.00       0.00      0.000
10:01am           121          2          4         27         67       77.5       46.7      29.48       46.7        414       2590       -289       4.24       0.00       0.00      0.000
10:02am           186          2          7         27         67       77.5       46.9      29.48       46.9        414       2592       -275       4.37       0.00       0.00      0.000
10:03am           174          2          7         26         67       77.5       47.0      29.48       47.0        414       2594       -269       4.40       0.00       0.00      0.000
10:04am           174          1          7         27         67       77.5       47.1      29.48       47.1        414       2595       -262       4.42       0.00       0.00      0.000
10:05am           174          1          7         26         68       77.5       47.3      29.48       47.3        414       2503       -248       4.55       0.00       0.00      0.000
10:06am           174          2          2         27         67       77.5       47.4      29.48       47.4        414       2598       -242       4.57       0.00       0.00      0.000
10:07am           274          0          3         26         67       77.5       47.6      29.48       47.6        414       2600       -228       4.69       0.00       0.00      0.000
10:08am           265          2          3         26         66       77.3       47.6      29.48       47.6        414       2696       -228       4.62       0.00       0.00      0.000
10:09am           268          1          3         27         67       77.3       47.8      29.47       47.8        415       2603       -214       4.74       0.00       0.00      0.000
10:10am           270          1          3         27         66       77.3       47.9      29.47       47.9        415       2699       -207       4.76       0.00       0.00      0.000
10:11am           271          1          1         26         65       77.3       48.0      29.47       48.0        415       2797       -200       4.78       0.00       0.00      0.000
10:12am           268          3          3         26         65       77.3       48.0      29.47       47.4        415       2797       -200       4.70       0.00       0.00      0.000
10:13am           194          1          3         26         65       77.3       48.2      29.47       48.2        415       2800       -187       4.82       0.00       0.00      0.000
10:14am           168          2          4         27         65       77.3       48.4      29.47       48.4        415       2802       -173       4.94       0.00       0.00      0.000
10:15am           209          1          4         26         64       77.3       48.5      29.47       48.5        415       2902       -166       4.96       0.00       0.00      0.000
10:16am           202          1          3         27         64       77.3       48.6      29.47       48.6        415       2903       -160       4.98       0.00       0.00      0.000
10:17am           203          1          3         26         65       77.3       48.8      29.47       48.8        415       2807       -146       5.09       0.00       0.00      0.000
10:18am           206          2          3         26         65       77.3       49.0      29.47       49.0        415       2809       -133       5.21       0.00       0.00      0.000
10:19am           207          2          3         26         64       77.3       49.2      29.47       49.2        416       2911       -118       5.32       0.00       0.00      0.000
10:20am           222          4          4         26         63       77.3       49.4      29.47       48.2        416       3013       -105       5.42       0.00       0.00      0.000
10:21am           244          2          4         26         62       77.3       49.4      29.47       49.4        416       3115       -105       5.33       0.00       0.00      0.000
10:22am           238          2          4         26         63       77.3       49.4      29.47       49.4        416       3013       -105       5.25       0.00       0.00      0.000
10:23am           191          5          5         26         62       77.2       49.4      29.47       47.5        416       3115       -105       5.17       0.00       0.00      0.000
10:24am           179          2          5         26         62       77.2       49.3      29.47       49.3        416       3113       -112       4.98       0.00       0.00      0.000
10:25am           152          1          5         26         62       77.2       49.3      29.47       49.3        416       3113       -112       4.89       0.00       0.00      0.000
10:26am           219          3          3         27         63       77.2       49.2      29.47       48.8        416       3011       -118       4.72       0.00       0.00      0.000
10:27am           187          3          6         27         62       77.2       49.4      29.47       49.0        416       3115       -105       4.84       0.00       0.00      0.000
10:28am           181          2          6         27         62       77.2       49.5      29.47       49.5        416       3116        -98       4.86       0.00       0.00      0.000
10:29am           252          4          6         26         62       77.2       49.5      29.47       48.3        416       3116        -98       4.78       0.00       0.00      0.000
10:30am           243          2          6         26         61       77.2       49.5      29.47       49.5        416       3219        -98       4.70       0.00       0.00      0.000
10:31am           233          4          4         27         63       77.2       49.6      29.47       48.4        416       3016        -91       4.72       0.00       0.00      0.000
10:32am           239          0          4         26         63       77.2       49.6      29.47       49.6        417       3016        -90       4.64       0.00       0.00      0.000
10:33am           239          0          4         27         62       77.2       49.7      29.47       49.7        417       3119        -84       4.66       0.00       0.00      0.000
10:34am           237          1          4         26         62       77.2       49.7      29.47       49.7        417       3119        -84       4.59       0.00       0.00      0.000
10:35am           283          2          4         26         63       77.2       49.8      29.47       49.8        417       3018        -77       4.61       0.00       0.00      0.000
10:36am           282          2          3         27         62       77.2       49.9      29.47       49.9        417       3121        -70       4.63       0.00       0.00      0.000
10:37am           286          2          3         26         62       77.2       49.9      29.47       49.9        417       3121        -70       4.56       0.00       0.00      0.000
10:38am           252          0          3         26         62       77.2       50.0      29.47       50.0        417       3123        -63       4.58       0.00       0.00      0.000

Data provided from:  Mark Hofmann's Bel Air, MD Weather Station